Redwood City, CA (94065)

15:11 PDT le 27 août 2016 (GMT -0700)
Belmont - Island Park | | Change Station

Alt. 25 ft 37.53 °N, 122.27 °W | Updated 5 seconds ago

Partly Cloudy
Partiellement nuageux
71.8 ° F
Paraît 76 ° F
N
5.4
Vent Variable Vent de Ouest
Gusts 10.0 mph

Aujourd'hui
Haut(e) -- | Bas -- ° F
--% Risque de précip.
Hier
Haut(e) -- | Bas -- ° F
Precip. -- pouce
Pression 29.99 pouce
Visibilité 10.0 Miles terrestres
Nuages Peu 2000 ft
indice de chaleur 76 ° F
Point de rosée 58 ° F
Humidité 61%
Précipitations 0.00 pouce
Profondeur de la couche neigeuse Non disponible.
6:35 AM 7:44 PM
Lune descendante, 21% visible
METAR KSQL 272147Z 28011G17KT 10SM FEW020 22/13 A2999
Pression 29.99 pouce
Visibilité 10.0 Miles terrestres
Nuages Peu 2000 ft
indice de chaleur 76 ° F
Point de rosée 58 ° F
Humidité 61%
Précipitations 0.00 pouce
Profondeur de la couche neigeuse Non disponible.
6:35 AM 7:44 PM
Lune descendante, 21% visible
METAR KSQL 272147Z 28011G17KT 10SM FEW020 22/13 A2999

10-Day Weather Forecast

Almanac

Astronomie

Aug. 27, 2016 Lever Coucher
Temps réel
Crépuscule civil
Crépuscule nautique
Crépuscule astronomique
Lune
Durée de lumière visible
Longueur du jour
Tomorrow will be .
, % of the Moon is Illuminated

Extrêmes aujourd'hui

State Highs State Lows

Community

WunderPhotos

Upload Photos

1,935,455 Photos téléchargées !

WunderBlog® & News

Nearby

Qualité de l'air

  Qualité de l'air Indice de la qualité de l'air Polluant
Not available.

Épaisseur de neige

Station Depth Altitude

Activité sismique

Ville Distance Mag. Time & Date
Minimum magnitude displayed is 2.5.

Températures des eaux côtières

Lieu Température

Stations

Stations météo à proximité

Emplacement de la station Température Refroidissement éolien Point de rosée Humidité Vent Precip. Alt. Mise à jour Type
                   

Watches & Warnings

There are currently no watches in effect.